createdAt,value
2019-04-26T00:01:43.414Z,18.97
2019-04-26T00:04:16.181Z,19.40
2019-04-26T00:06:48.650Z,18.47
2019-04-26T00:09:40.080Z,18.53
2019-04-26T00:12:30.637Z,19.37
2019-04-26T00:15:29.364Z,20.23
2019-04-26T00:18:01.614Z,20.13
2019-04-26T00:20:33.160Z,18.70
2019-04-26T00:23:04.804Z,16.23
2019-04-26T00:25:36.566Z,19.17
2019-04-26T00:28:08.131Z,17.40
2019-04-26T00:30:39.866Z,18.87
2019-04-26T00:33:12.448Z,18.60
2019-04-26T00:35:47.576Z,20.43
2019-04-26T00:38:18.199Z,19.63
2019-04-26T00:40:51.646Z,19.83
2019-04-26T00:43:24.961Z,18.97
2019-04-26T00:45:58.923Z,19.73
2019-04-26T00:48:32.311Z,20.00
2019-04-26T00:51:06.700Z,19.63
2019-04-26T00:53:40.069Z,18.03
2019-04-26T00:56:14.562Z,19.47
2019-04-26T00:58:46.353Z,20.13
2019-04-26T01:01:18.934Z,18.90
2019-04-26T01:03:50.515Z,19.53
2019-04-26T01:06:25.063Z,18.53
2019-04-26T01:08:56.926Z,20.67
2019-04-26T01:11:28.418Z,19.33
2019-04-26T01:14:00.074Z,16.03
2019-04-26T01:16:33.490Z,20.17
2019-04-26T01:19:05.382Z,16.57
2019-04-26T01:21:42.701Z,16.30
2019-04-26T01:24:16.903Z,19.27
2019-04-26T01:26:51.676Z,18.80
2019-04-26T01:29:25.936Z,18.77
2019-04-26T01:32:07.324Z,19.73
2019-04-26T01:34:40.398Z,19.23
2019-04-26T01:37:12.686Z,19.70
2019-04-26T01:39:49.441Z,19.30
2019-04-26T01:42:37.287Z,17.53
2019-04-26T01:45:23.648Z,18.93
2019-04-26T01:47:58.220Z,17.63
2019-04-26T01:50:32.376Z,19.43
2019-04-26T01:53:05.544Z,17.97
2019-04-26T01:55:37.082Z,17.60
2019-04-26T01:58:08.666Z,17.57
2019-04-26T02:01:05.186Z,16.90
2019-04-26T02:03:36.706Z,18.43
2019-04-26T02:06:08.298Z,19.63
2019-04-26T02:08:42.698Z,18.97
2019-04-26T02:11:14.330Z,18.90
2019-04-26T02:13:46.308Z,16.30
2019-04-26T02:16:17.772Z,18.27
2019-04-26T02:18:49.259Z,19.70
2019-04-26T02:21:26.118Z,19.13
2019-04-26T02:24:19.788Z,18.00
2019-04-26T02:26:51.934Z,18.30
2019-04-26T02:29:26.869Z,18.27
2019-04-26T02:32:03.168Z,18.70
2019-04-26T02:34:37.844Z,19.43
2019-04-26T02:37:12.333Z,16.93
2019-04-26T02:39:45.862Z,16.13
2019-04-26T02:42:40.442Z,19.67
2019-04-26T02:45:41.636Z,15.80
2019-04-26T02:48:27.141Z,16.17
2019-04-26T02:51:03.856Z,18.73
2019-04-26T02:53:57.681Z,15.40
2019-04-26T02:56:37.681Z,17.70
2019-04-26T02:59:34.509Z,15.00
2019-04-26T03:02:08.664Z,18.07
2019-04-26T03:04:43.083Z,17.40
2019-04-26T03:07:37.315Z,16.27
2019-04-26T03:10:10.163Z,17.00
2019-04-26T03:12:44.583Z,23.60
2019-04-26T03:15:43.879Z,21.70
2019-04-26T03:18:44.174Z,24.63
2019-04-26T03:21:25.191Z,19.20
2019-04-26T03:24:10.507Z,19.53
2019-04-26T03:27:11.147Z,16.33
2019-04-26T03:30:22.169Z,17.67
2019-04-26T03:33:22.371Z,17.70
2019-04-26T03:36:42.848Z,19.97
2019-04-26T03:39:42.162Z,18.07
2019-04-26T03:42:54.503Z,19.50
2019-04-26T03:46:03.757Z,17.73
2019-04-26T03:48:48.017Z,18.03
2019-04-26T03:51:29.791Z,21.27
2019-04-26T03:54:11.639Z,21.87
2019-04-26T03:57:03.402Z,18.77
2019-04-26T03:59:59.521Z,20.83
2019-04-26T04:03:33.354Z,19.47
2019-04-26T04:06:08.672Z,22.63
2019-04-26T04:08:48.374Z,21.87
2019-04-26T04:11:25.462Z,20.33
2019-04-26T04:14:07.763Z,22.70
2019-04-26T04:17:22.022Z,19.43
2019-04-26T04:20:17.585Z,19.13
2019-04-26T04:22:55.314Z,18.43
2019-04-26T04:25:33.270Z,17.67
2019-04-26T04:28:19.000Z,17.50
2019-04-26T04:31:17.484Z,17.00
2019-04-26T04:34:02.563Z,17.57
2019-04-26T04:36:42.166Z,18.70
2019-04-26T04:39:22.566Z,23.27
2019-04-26T04:42:12.751Z,21.57
2019-04-26T04:45:59.300Z,19.37
2019-04-26T04:49:10.175Z,21.23
2019-04-26T04:52:23.849Z,21.77
2019-04-26T04:55:07.369Z,19.80
2019-04-26T04:58:04.765Z,19.90
2019-04-26T05:01:18.634Z,17.73
2019-04-26T05:04:02.816Z,21.13
2019-04-26T05:06:54.591Z,16.70
2019-04-26T05:09:34.312Z,18.67
2019-04-26T05:12:35.591Z,14.20
2019-04-26T05:15:33.951Z,14.03
2019-04-26T05:18:48.720Z,15.27
2019-04-26T05:21:58.630Z,16.57
2019-04-26T05:24:41.132Z,16.27
2019-04-26T05:27:46.907Z,15.33
2019-04-26T05:31:10.153Z,14.73
2019-04-26T05:34:29.758Z,13.20
2019-04-26T05:37:23.298Z,12.47
2019-04-26T05:40:13.305Z,10.87
2019-04-26T05:43:22.046Z,16.73
2019-04-26T05:46:29.841Z,13.07
2019-04-26T05:49:24.045Z,10.33
2019-04-26T05:52:32.696Z,11.07
2019-04-26T05:55:58.564Z,14.60
2019-04-26T05:58:54.678Z,18.87
2019-04-26T06:02:28.314Z,13.23
2019-04-26T06:05:27.472Z,13.17
2019-04-26T06:08:31.235Z,13.80
2019-04-26T06:11:08.161Z,11.57
2019-04-26T06:14:50.487Z,12.33
2019-04-26T06:18:11.866Z,10.73
2019-04-26T06:21:16.677Z,16.80
2019-04-26T06:24:15.363Z,14.47
2019-04-26T06:27:39.226Z,11.60
2019-04-26T06:30:21.678Z,11.23
2019-04-26T06:33:39.132Z,12.40
2019-04-26T06:36:23.902Z,10.83
2019-04-26T06:39:41.605Z,11.73
2019-04-26T06:42:51.068Z,10.60
2019-04-26T06:46:00.493Z,19.40
2019-04-26T06:48:49.884Z,11.83
2019-04-26T06:51:25.236Z,14.00
2019-04-26T06:54:22.790Z,11.80
2019-04-26T06:57:22.742Z,9.80
2019-04-26T07:00:06.565Z,9.37
2019-04-26T07:02:50.940Z,9.50
2019-04-26T07:05:28.921Z,9.83
2019-04-26T07:08:57.151Z,8.37
2019-04-26T07:12:42.464Z,9.00
2019-04-26T07:15:46.078Z,10.43
2019-04-26T07:19:19.641Z,9.73
2019-04-26T07:22:47.832Z,9.63
2019-04-26T07:26:06.371Z,8.50
2019-04-26T07:29:12.512Z,6.97
2019-04-26T07:31:53.834Z,7.40
2019-04-26T07:35:02.760Z,8.70
2019-04-26T07:37:48.538Z,7.33
2019-04-26T07:41:07.188Z,7.40
2019-04-26T07:44:03.743Z,6.30
2019-04-26T07:47:08.859Z,6.33
2019-04-26T07:50:16.197Z,6.83
2019-04-26T07:53:37.112Z,5.23
2019-04-26T07:56:24.283Z,6.20
2019-04-26T08:02:38.842Z,5.80
2019-04-26T08:05:27.238Z,5.47
2019-04-26T08:08:01.588Z,5.30
2019-04-26T08:10:36.921Z,5.47
2019-04-26T08:13:13.020Z,5.87
2019-04-26T08:16:10.518Z,4.83
2019-04-26T08:18:49.570Z,5.30
2019-04-26T08:21:31.506Z,5.13
2019-04-26T08:24:24.250Z,4.30
2019-04-26T08:27:13.386Z,5.83
2019-04-26T08:29:42.447Z,5.50
2019-04-26T08:32:22.321Z,5.30
2019-04-26T08:35:21.830Z,4.83
2019-04-26T08:37:57.727Z,4.40
2019-04-26T08:40:31.802Z,3.83
2019-04-26T08:43:22.755Z,4.27
2019-04-26T08:46:22.346Z,5.07
2019-04-26T08:49:09.635Z,4.47
2019-04-26T08:51:45.402Z,4.37
2019-04-26T08:54:26.127Z,4.20
2019-04-26T08:57:09.488Z,4.13
2019-04-26T08:59:46.505Z,3.80
2019-04-26T09:03:01.803Z,3.93
2019-04-26T09:05:51.385Z,4.87
2019-04-26T09:08:26.866Z,5.10
2019-04-26T09:11:01.422Z,4.23
2019-04-26T09:13:36.706Z,4.47
2019-04-26T09:16:10.851Z,3.47
2019-04-26T09:18:44.111Z,3.87
2019-04-26T09:21:19.017Z,3.57
2019-04-26T09:24:08.954Z,4.03
2019-04-26T09:26:47.183Z,3.50
2019-04-26T09:29:32.141Z,3.87
2019-04-26T09:32:27.892Z,3.20
2019-04-26T09:34:58.966Z,3.67
2019-04-26T09:37:31.127Z,3.25
2019-04-26T09:40:10.088Z,3.47
2019-04-26T09:42:45.595Z,4.20
2019-04-26T09:45:35.530Z,4.25
2019-04-26T09:48:26.635Z,3.30
2019-04-26T09:50:58.869Z,3.35
2019-04-26T09:53:30.950Z,4.20
2019-04-26T09:56:03.215Z,3.70
2019-04-26T09:58:35.346Z,3.33
2019-04-26T10:01:07.440Z,3.22
2019-04-26T10:03:39.615Z,3.72
2019-04-26T10:06:11.774Z,4.20
2019-04-26T10:08:47.042Z,4.00
2019-04-26T10:11:19.858Z,3.47
2019-04-26T10:13:59.922Z,4.33
2019-04-26T10:16:53.920Z,3.70
2019-04-26T10:19:38.994Z,3.60
2019-04-26T10:22:11.264Z,4.10
2019-04-26T10:24:43.434Z,4.60
2019-04-26T10:27:15.582Z,3.20
2019-04-26T10:29:47.697Z,3.72
2019-04-26T10:32:21.786Z,4.53
2019-04-26T10:34:53.698Z,3.60
2019-04-26T10:37:25.781Z,3.22
2019-04-26T10:39:57.876Z,2.95
2019-04-26T10:42:31.147Z,3.50
2019-04-26T10:45:03.663Z,3.27
2019-04-26T10:47:38.495Z,3.12
2019-04-26T10:50:10.732Z,3.30
2019-04-26T10:53:13.935Z,3.47
2019-04-26T10:56:04.386Z,3.77
2019-04-26T10:58:55.413Z,3.58
2019-04-26T11:01:27.539Z,3.52
2019-04-26T11:03:59.669Z,3.92
2019-04-26T11:06:31.834Z,3.90
2019-04-26T11:09:06.334Z,3.20
2019-04-26T11:11:39.248Z,3.80
2019-04-26T11:14:11.546Z,3.80
2019-04-26T11:16:43.601Z,3.42
2019-04-26T11:19:15.763Z,3.10
2019-04-26T11:21:51.062Z,3.62
2019-04-26T11:24:21.614Z,4.92
2019-04-26T11:26:53.708Z,3.58
2019-04-26T11:29:28.817Z,3.62
2019-04-26T11:32:02.771Z,3.12
2019-04-26T11:34:33.397Z,3.72
2019-04-26T11:37:05.710Z,3.83
2019-04-26T11:39:40.596Z,3.52
2019-04-26T11:42:12.998Z,3.33
2019-04-26T11:44:45.344Z,3.10
2019-04-26T11:47:17.564Z,2.92
2019-04-26T11:49:50.134Z,3.10
2019-04-26T11:52:22.435Z,2.72
2019-04-26T11:54:55.118Z,3.95
2019-04-26T11:57:28.174Z,3.02
2019-04-26T12:00:01.327Z,2.98
2019-04-26T12:02:37.264Z,3.33
2019-04-26T12:05:28.170Z,3.58
2019-04-26T12:08:06.806Z,3.27
2019-04-26T12:10:40.443Z,3.30
2019-04-26T12:13:12.846Z,3.12
2019-04-26T12:15:45.407Z,3.50
2019-04-26T12:18:17.739Z,3.27
2019-04-26T12:20:49.912Z,3.55
2019-04-26T12:23:22.069Z,2.55
2019-04-26T12:25:54.120Z,3.40
2019-04-26T12:28:26.208Z,3.40
2019-04-26T12:30:59.855Z,3.67
2019-04-26T12:33:32.355Z,2.98
2019-04-26T12:36:05.238Z,3.15
2019-04-26T12:38:37.435Z,3.67
2019-04-26T12:41:39.419Z,5.35
2019-04-26T12:44:03.028Z,3.22
2019-04-26T12:46:41.894Z,3.65
2019-04-26T12:49:14.030Z,3.70
2019-04-26T12:51:47.279Z,3.98
2019-04-26T12:54:19.822Z,3.27
2019-04-26T12:56:51.932Z,3.47
2019-04-26T12:59:26.588Z,3.33
2019-04-26T13:02:05.377Z,3.05
2019-04-26T13:04:36.240Z,3.27
2019-04-26T13:07:22.730Z,3.33
2019-04-26T13:10:08.707Z,3.30
2019-04-26T13:12:53.736Z,3.65
2019-04-26T13:16:08.630Z,3.02
2019-04-26T13:18:41.287Z,8.88
2019-04-26T13:21:37.373Z,8.10
2019-04-26T13:24:07.100Z,4.90
2019-04-26T13:26:39.212Z,4.70
2019-04-26T13:29:11.357Z,3.17
2019-04-26T13:31:43.557Z,3.50
2019-04-26T13:34:15.803Z,4.20
2019-04-26T13:36:47.935Z,3.87
2019-04-26T13:39:22.386Z,2.70
2019-04-26T13:42:03.078Z,2.58
2019-04-26T13:44:45.432Z,2.98
2019-04-26T13:47:42.365Z,3.10
2019-04-26T13:50:17.929Z,2.37
2019-04-26T13:52:50.057Z,2.80
2019-04-26T13:55:25.345Z,3.37
2019-04-26T13:57:56.181Z,2.95
2019-04-26T14:00:32.012Z,3.02
2019-04-26T14:03:04.395Z,2.65
2019-04-26T14:05:37.870Z,8.43
2019-04-26T14:08:11.131Z,4.80
2019-04-26T14:10:45.602Z,3.67
2019-04-26T14:13:20.847Z,2.92
2019-04-26T14:15:52.133Z,2.87
2019-04-26T14:18:24.460Z,3.22
2019-04-26T14:20:59.025Z,2.72
2019-04-26T14:23:49.392Z,3.17
2019-04-26T14:26:31.267Z,2.40
2019-04-26T14:29:03.370Z,2.10
2019-04-26T14:31:35.381Z,2.40
2019-04-26T14:34:07.445Z,2.27
2019-04-26T14:36:39.469Z,2.52
2019-04-26T14:39:14.458Z,2.85
2019-04-26T14:41:45.850Z,2.98
2019-04-26T14:44:17.901Z,2.95
2019-04-26T14:46:53.234Z,2.50
2019-04-26T14:49:25.008Z,2.50
2019-04-26T14:51:57.292Z,2.30
2019-04-26T14:54:29.443Z,2.47
2019-04-26T14:57:07.288Z,3.00
2019-04-26T14:59:50.365Z,2.40
2019-04-26T15:02:47.188Z,2.98
2019-04-26T15:05:34.237Z,2.83
2019-04-26T15:08:09.608Z,2.72
2019-04-26T15:10:48.631Z,2.90
2019-04-26T15:13:20.774Z,2.27
2019-04-26T15:15:56.631Z,3.25
2019-04-26T15:18:29.294Z,2.90
2019-04-26T15:21:03.959Z,3.00
2019-04-26T15:23:36.378Z,2.90
2019-04-26T15:26:08.413Z,2.72
2019-04-26T15:28:43.659Z,2.92
2019-04-26T15:31:17.109Z,2.35
2019-04-26T15:33:49.114Z,3.08
2019-04-26T15:36:23.300Z,3.05
2019-04-26T15:38:56.088Z,2.70
2019-04-26T15:41:46.999Z,2.90
2019-04-26T15:44:39.202Z,2.90
2019-04-26T15:47:45.407Z,3.20
2019-04-26T15:50:36.766Z,3.15
2019-04-26T15:53:12.769Z,2.80
2019-04-26T15:55:43.588Z,2.42
2019-04-26T15:58:16.191Z,2.50
2019-04-26T16:00:48.288Z,3.00
2019-04-26T16:03:20.334Z,2.70
2019-04-26T16:05:52.518Z,3.30
2019-04-26T16:08:24.552Z,2.50
2019-04-26T16:10:56.687Z,3.17
2019-04-26T16:13:28.740Z,2.10
2019-04-26T16:16:02.070Z,3.10
2019-04-26T16:18:34.631Z,2.40
2019-04-26T16:21:06.646Z,2.67
2019-04-26T16:23:41.510Z,3.17
2019-04-26T16:26:15.382Z,3.42
2019-04-26T16:29:18.433Z,2.87
2019-04-26T16:32:21.875Z,4.62
2019-04-26T16:34:52.798Z,5.95
2019-04-26T16:37:25.030Z,9.90
2019-04-26T16:39:58.196Z,3.90
2019-04-26T16:42:30.342Z,3.08
2019-04-26T16:45:04.541Z,3.90
2019-04-26T16:47:45.072Z,4.65
2019-04-26T16:50:14.897Z,2.90
2019-04-26T16:52:47.664Z,3.27
2019-04-26T16:55:21.340Z,3.05
2019-04-26T16:57:55.638Z,3.00
2019-04-26T17:00:47.323Z,3.20
2019-04-26T17:03:06.434Z,2.70
2019-04-26T17:05:47.563Z,3.10
2019-04-26T17:08:10.258Z,3.58
2019-04-26T17:10:42.037Z,2.80
2019-04-26T17:13:14.503Z,3.47
2019-04-26T17:15:46.677Z,3.60
2019-04-26T17:18:19.424Z,3.20
2019-04-26T17:20:53.100Z,2.85
2019-04-26T17:23:53.008Z,2.90
2019-04-26T17:26:42.811Z,3.12
2019-04-26T17:29:15.213Z,3.12
2019-04-26T17:31:47.379Z,2.80
2019-04-26T17:34:22.528Z,2.80
2019-04-26T17:36:53.455Z,3.27
2019-04-26T17:39:25.751Z,4.60
2019-04-26T17:41:57.794Z,3.50
2019-04-26T17:44:33.918Z,3.37
2019-04-26T17:47:08.414Z,3.72
2019-04-26T17:49:44.071Z,8.45
2019-04-26T17:52:20.374Z,4.85
2019-04-26T17:54:52.880Z,4.45
2019-04-26T17:57:34.662Z,4.58
2019-04-26T18:00:07.299Z,3.30
2019-04-26T18:02:42.003Z,3.95
2019-04-26T18:05:10.880Z,6.92
2019-04-26T18:07:50.437Z,35.20
2019-04-26T18:10:17.862Z,25.10
2019-04-26T18:12:50.859Z,17.65
2019-04-26T18:15:24.103Z,31.60
2019-04-26T18:18:28.251Z,40.23
2019-04-26T18:21:34.679Z,43.73
2019-04-26T18:24:07.009Z,14.15
2019-04-26T18:26:42.503Z,13.85
2019-04-26T18:29:15.756Z,15.15
2019-04-26T18:31:47.890Z,11.55
2019-04-26T18:34:19.935Z,9.80
2019-04-26T18:36:52.076Z,9.30
2019-04-26T18:39:26.483Z,9.40
2019-04-26T18:42:02.408Z,8.83
2019-04-26T18:44:39.240Z,20.25
2019-04-26T18:47:20.967Z,28.98
2019-04-26T18:50:00.021Z,24.82
2019-04-26T18:52:33.639Z,16.00
2019-04-26T18:55:16.300Z,9.68
2019-04-26T18:57:56.343Z,9.70
2019-04-26T19:00:47.607Z,7.28
2019-04-26T19:03:25.535Z,7.42
2019-04-26T19:06:02.567Z,8.70
2019-04-26T19:08:45.877Z,5.62
2019-04-26T19:11:11.854Z,6.17
2019-04-26T19:14:14.950Z,5.15
2019-04-26T19:16:59.397Z,23.98
2019-04-26T19:19:38.390Z,37.33
2019-04-26T19:22:15.533Z,19.40
2019-04-26T19:24:44.498Z,10.50
2019-04-26T19:27:22.410Z,8.80
2019-04-26T19:29:51.818Z,8.83
2019-04-26T19:32:24.422Z,8.45
2019-04-26T19:34:56.169Z,8.57
2019-04-26T19:37:30.442Z,8.97
2019-04-26T19:40:02.893Z,8.48
2019-04-26T19:42:38.382Z,8.47
2019-04-26T19:45:18.955Z,8.53
2019-04-26T19:48:19.210Z,7.97
2019-04-26T19:50:52.582Z,20.03
2019-04-26T19:53:54.813Z,37.20
2019-04-26T19:56:31.452Z,14.43
2019-04-26T19:59:04.378Z,10.10
2019-04-26T20:01:35.942Z,8.67
2019-04-26T20:04:07.537Z,8.57
2019-04-26T20:06:41.492Z,7.20
2019-04-26T20:09:13.812Z,6.53
2019-04-26T20:11:47.055Z,7.80
2019-04-26T20:14:19.196Z,21.90
2019-04-26T20:16:52.086Z,18.17
2019-04-26T20:19:34.382Z,11.90
2019-04-26T20:22:03.578Z,7.57
2019-04-26T20:24:36.242Z,8.73
2019-04-26T20:27:07.834Z,11.43
2019-04-26T20:29:40.728Z,10.40
2019-04-26T20:32:44.356Z,10.80
2019-04-26T20:35:26.871Z,11.90
2019-04-26T20:38:01.092Z,11.73
2019-04-26T20:40:31.075Z,12.50
2019-04-26T20:43:06.924Z,12.13
2019-04-26T20:45:42.692Z,23.50
2019-04-26T20:48:14.855Z,24.93
2019-04-26T20:50:46.390Z,23.13
2019-04-26T20:53:19.589Z,25.00
2019-04-26T20:55:52.960Z,22.27
2019-04-26T20:58:24.590Z,23.00
2019-04-26T21:00:56.274Z,19.43
2019-04-26T21:03:28.073Z,17.90
2019-04-26T21:06:01.425Z,18.20
2019-04-26T21:08:33.010Z,16.63
2019-04-26T21:11:04.718Z,17.77
2019-04-26T21:13:36.323Z,16.23
2019-04-26T21:16:10.802Z,17.17
2019-04-26T21:18:44.384Z,15.97
2019-04-26T21:21:16.560Z,15.97
2019-04-26T21:23:51.119Z,17.13
2019-04-26T21:26:42.375Z,13.00
2019-04-26T21:29:33.806Z,14.07
2019-04-26T21:32:11.849Z,15.67
2019-04-26T21:34:44.952Z,16.33
2019-04-26T21:37:39.659Z,14.13
2019-04-26T21:40:26.916Z,14.23
2019-04-26T21:42:59.492Z,11.90
2019-04-26T21:45:31.813Z,12.83
2019-04-26T21:48:06.913Z,13.43
2019-04-26T21:50:38.996Z,12.00
2019-04-26T21:53:10.109Z,10.77
2019-04-26T21:55:43.509Z,10.63
2019-04-26T21:58:15.275Z,12.87
2019-04-26T22:01:11.121Z,17.33
2019-04-26T22:03:47.386Z,18.67
2019-04-26T22:06:14.747Z,24.20
2019-04-26T22:08:57.293Z,23.77
2019-04-26T22:11:25.107Z,27.57
2019-04-26T22:14:23.585Z,26.40
2019-04-26T22:17:14.111Z,25.83
2019-04-26T22:19:54.520Z,18.20
2019-04-26T22:22:44.383Z,11.23
2019-04-26T22:25:17.016Z,10.03
2019-04-26T22:27:48.512Z,12.17
2019-04-26T22:30:28.328Z,13.83
2019-04-26T22:32:58.562Z,12.03
2019-04-26T22:35:30.195Z,12.70
2019-04-26T22:38:01.814Z,10.90
2019-04-26T22:40:33.536Z,10.87
2019-04-26T22:43:27.248Z,9.63
2019-04-26T22:46:11.605Z,13.20
2019-04-26T22:48:44.206Z,9.23
2019-04-26T22:51:15.733Z,10.13
2019-04-26T22:53:47.259Z,10.17
2019-04-26T22:56:18.772Z,9.93
2019-04-26T22:58:50.370Z,11.27
2019-04-26T23:01:21.874Z,9.73
2019-04-26T23:03:53.485Z,11.50
2019-04-26T23:06:25.209Z,9.20
2019-04-26T23:08:56.906Z,7.87
2019-04-26T23:11:28.470Z,8.10
2019-04-26T23:14:19.093Z,8.37
2019-04-26T23:17:18.550Z,7.63
2019-04-26T23:19:57.448Z,8.60
2019-04-26T23:22:30.991Z,7.17
2019-04-26T23:25:03.493Z,8.07
2019-04-26T23:27:35.240Z,8.67
2019-04-26T23:30:07.444Z,7.60
2019-04-26T23:32:38.993Z,8.10
2019-04-26T23:35:10.487Z,7.63
2019-04-26T23:37:42.017Z,7.23
2019-04-26T23:40:13.637Z,6.57
2019-04-26T23:42:47.572Z,6.30
2019-04-26T23:45:18.268Z,5.53
2019-04-26T23:47:49.711Z,6.10
2019-04-26T23:50:21.191Z,5.87
2019-04-26T23:52:53.118Z,5.57
2019-04-26T23:55:24.882Z,6.03
2019-04-26T23:57:56.530Z,6.43
